EGPD/ABZ METAR and TAF weather

Enter ICAO airport designator
Station Type Date Time Source
EGPD METAR 2021/05/14 22:20 UTC NOAA

EGPD 142220Z AUTO 27002KT 9999 OVC033 07/05 Q1007 NOSIG


Station Type Date Time Source
EGPD Decoded METAR 2021/05/14 22:20 UTC NOAA

Aberdeen / Dyce, United Kingdom (EGPD) 57-12N 002-13W 0M
May 14, 2021 - 06:20 PM EDT / 2021.05.14 2220 UTC
Wind: from the W (270 degrees) at 2 MPH (2 KT):0
Visibility: greater than 7 mile(s):0
Sky conditions: overcast
Temperature: 44 F (7 C)
Dew Point: 41 F (5 C)
Relative Humidity: 87%
Pressure (altimeter): 29.74 in. Hg (1007 hPa)
ob: EGPD 142220Z AUTO 27002KT 9999 OVC033 07/05 Q1007 NOSIG
cycle: 22

Station Type Date Time Source
EGPD TAF 2021/05/14 18:09 UTC NOAA

TAF EGPD 141702Z 1418/1518 35008KT 9999 FEW018 BKN025
TEMPO 1418/1509 BKN012 PROB30
TEMPO 1421/1506 8000 -RA BKN008

Example: see airport list